createdAt,value
2019-03-19T00:00:22.813Z,60
2019-03-19T00:01:22.834Z,60
2019-03-19T00:02:22.836Z,61
2019-03-19T00:03:22.852Z,60
2019-03-19T00:04:22.932Z,60
2019-03-19T00:05:22.868Z,60
2019-03-19T00:06:22.835Z,61
2019-03-19T00:07:25.135Z,61
2019-03-19T00:08:22.908Z,61
2019-03-19T00:09:22.889Z,61
2019-03-19T00:10:22.885Z,61
2019-03-19T00:11:23.045Z,61
2019-03-19T00:12:22.967Z,60
2019-03-19T00:13:22.910Z,61
2019-03-19T00:14:22.929Z,61
2019-03-19T00:15:22.938Z,61
2019-03-19T00:16:22.970Z,61
2019-03-19T00:17:23.030Z,61
2019-03-19T00:18:22.966Z,61
2019-03-19T00:19:22.988Z,62
2019-03-19T00:20:22.968Z,61
2019-03-19T00:21:23.002Z,61
2019-03-19T00:22:23.002Z,61
2019-03-19T00:23:23.001Z,61
2019-03-19T00:24:23.022Z,60
2019-03-19T00:25:29.713Z,61
2019-03-19T00:26:23.030Z,61
2019-03-19T00:27:23.057Z,61
2019-03-19T00:28:23.088Z,61
2019-03-19T00:29:23.061Z,61
2019-03-19T00:30:23.083Z,61
2019-03-19T00:31:23.069Z,61
2019-03-19T00:32:23.325Z,61
2019-03-19T00:33:23.079Z,62
2019-03-19T00:34:24.111Z,61
2019-03-19T00:35:23.132Z,61
2019-03-19T00:36:23.099Z,61
2019-03-19T00:37:23.096Z,61
2019-03-19T00:38:23.127Z,61
2019-03-19T00:39:23.144Z,61
2019-03-19T00:40:23.155Z,62
2019-03-19T00:41:23.141Z,61
2019-03-19T00:42:23.181Z,61
2019-03-19T00:43:23.199Z,61
2019-03-19T00:44:23.161Z,61
2019-03-19T00:45:23.194Z,61
2019-03-19T00:46:23.181Z,61
2019-03-19T00:47:23.206Z,62
2019-03-19T00:48:23.195Z,62
2019-03-19T00:49:23.250Z,62
2019-03-19T00:50:23.257Z,61
2019-03-19T00:51:23.271Z,62
2019-03-19T00:52:23.245Z,62
2019-03-19T00:53:23.288Z,62
2019-03-19T00:54:23.252Z,62
2019-03-19T00:55:23.256Z,62
2019-03-19T00:56:23.275Z,62
2019-03-19T00:57:23.258Z,62
2019-03-19T00:58:23.258Z,62
2019-03-19T00:59:23.260Z,62
2019-03-19T01:00:23.281Z,62
2019-03-19T01:01:23.298Z,62
2019-03-19T01:02:23.331Z,62
2019-03-19T01:03:23.318Z,62
2019-03-19T01:04:23.304Z,62
2019-03-19T01:05:23.326Z,62
2019-03-19T01:06:23.351Z,62
2019-03-19T01:07:23.322Z,62
2019-03-19T01:08:23.326Z,62
2019-03-19T01:09:23.351Z,62
2019-03-19T01:10:23.350Z,62
2019-03-19T01:11:23.387Z,62
2019-03-19T01:12:23.376Z,62
2019-03-19T01:13:23.367Z,62
2019-03-19T01:14:23.404Z,62
2019-03-19T01:15:23.452Z,62
2019-03-19T01:16:23.404Z,62
2019-03-19T01:17:23.399Z,62
2019-03-19T01:18:23.428Z,62
2019-03-19T01:19:23.417Z,62
2019-03-19T01:20:23.420Z,62
2019-03-19T01:21:23.449Z,62
2019-03-19T01:22:23.450Z,62
2019-03-19T01:23:23.438Z,62
2019-03-19T01:24:23.474Z,62
2019-03-19T01:25:23.436Z,62
2019-03-19T01:26:23.448Z,63
2019-03-19T01:27:23.551Z,63
2019-03-19T01:28:23.500Z,63
2019-03-19T01:29:23.458Z,63
2019-03-19T01:30:23.480Z,63
2019-03-19T01:31:23.470Z,63
2019-03-19T01:32:23.590Z,63
2019-03-19T01:33:23.492Z,63
2019-03-19T01:34:23.543Z,63
2019-03-19T01:35:23.514Z,63
2019-03-19T01:36:23.508Z,63
2019-03-19T01:37:23.507Z,64
2019-03-19T01:38:25.802Z,64
2019-03-19T01:39:23.540Z,63
2019-03-19T01:40:23.548Z,64
2019-03-19T01:41:23.551Z,62
2019-03-19T01:42:23.540Z,63
2019-03-19T01:43:23.533Z,64
2019-03-19T01:44:23.574Z,64
2019-03-19T01:45:23.588Z,64
2019-03-19T01:46:23.593Z,64
2019-03-19T01:47:23.549Z,64
2019-03-19T01:48:23.594Z,64
2019-03-19T01:49:23.554Z,64
2019-03-19T01:50:23.558Z,64
2019-03-19T01:51:23.608Z,64
2019-03-19T01:52:23.599Z,64
2019-03-19T01:53:23.617Z,64
2019-03-19T01:54:23.706Z,64
2019-03-19T01:55:25.480Z,65
2019-03-19T01:56:23.727Z,65
2019-03-19T01:57:23.608Z,65
2019-03-19T01:58:23.616Z,64
2019-03-19T01:59:23.596Z,65
2019-03-19T02:00:23.645Z,65
2019-03-19T02:01:23.587Z,65
2019-03-19T02:02:23.618Z,65
2019-03-19T02:03:23.613Z,65
2019-03-19T02:04:23.653Z,65
2019-03-19T02:05:23.702Z,65
2019-03-19T02:06:23.651Z,66
2019-03-19T02:07:23.634Z,65
2019-03-19T02:08:23.651Z,65
2019-03-19T02:09:23.647Z,65
2019-03-19T02:10:23.640Z,65
2019-03-19T02:11:23.642Z,65
2019-03-19T02:12:23.662Z,65
2019-03-19T02:13:23.660Z,66
2019-03-19T02:14:23.668Z,65
2019-03-19T02:15:23.665Z,66
2019-03-19T02:16:24.231Z,66
2019-03-19T02:17:23.699Z,66
2019-03-19T02:18:23.699Z,66
2019-03-19T02:19:23.711Z,66
2019-03-19T02:20:23.662Z,67
2019-03-19T02:21:23.687Z,66
2019-03-19T02:22:23.702Z,67
2019-03-19T02:23:23.714Z,67
2019-03-19T02:24:23.674Z,67
2019-03-19T02:25:23.696Z,67
2019-03-19T02:26:23.717Z,66
2019-03-19T02:27:23.704Z,66
2019-03-19T02:28:23.735Z,66
2019-03-19T02:29:23.692Z,66
2019-03-19T02:30:23.723Z,66
2019-03-19T02:31:23.723Z,66
2019-03-19T02:32:23.746Z,66
2019-03-19T02:33:23.728Z,66
2019-03-19T02:34:23.745Z,66
2019-03-19T02:35:23.764Z,66
2019-03-19T02:36:23.710Z,66
2019-03-19T02:37:23.718Z,66
2019-03-19T02:38:23.742Z,66
2019-03-19T02:39:23.755Z,66
2019-03-19T02:40:23.779Z,66
2019-03-19T02:41:23.801Z,65
2019-03-19T02:42:23.865Z,65
2019-03-19T02:43:23.753Z,65
2019-03-19T02:44:23.792Z,65
2019-03-19T02:45:23.851Z,65
2019-03-19T02:46:23.767Z,65
2019-03-19T02:47:23.760Z,66
2019-03-19T02:48:23.796Z,65
2019-03-19T02:49:23.781Z,65
2019-03-19T02:50:23.769Z,65
2019-03-19T02:51:23.786Z,65
2019-03-19T02:52:23.784Z,65
2019-03-19T02:53:23.789Z,64
2019-03-19T02:54:23.778Z,65
2019-03-19T02:55:23.822Z,64
2019-03-19T02:56:32.245Z,64
2019-03-19T02:57:23.826Z,64
2019-03-19T02:58:23.800Z,64
2019-03-19T02:59:23.804Z,64
2019-03-19T03:00:23.807Z,64
2019-03-19T03:01:23.801Z,64
2019-03-19T03:02:23.803Z,64
2019-03-19T03:03:24.017Z,65
2019-03-19T03:04:23.803Z,65
2019-03-19T03:05:23.921Z,64
2019-03-19T03:06:23.859Z,64
2019-03-19T03:07:23.871Z,64
2019-03-19T03:08:23.863Z,64
2019-03-19T03:09:23.826Z,64
2019-03-19T03:10:23.848Z,64
2019-03-19T03:11:23.814Z,64
2019-03-19T03:12:23.862Z,64
2019-03-19T03:13:23.851Z,64
2019-03-19T03:14:23.822Z,65
2019-03-19T03:15:23.838Z,65
2019-03-19T03:16:23.873Z,65
2019-03-19T03:17:23.854Z,65
2019-03-19T03:18:23.878Z,65
2019-03-19T03:19:23.843Z,65
2019-03-19T03:20:23.864Z,65
2019-03-19T03:21:23.964Z,65
2019-03-19T03:22:23.928Z,64
2019-03-19T03:23:23.910Z,65
2019-03-19T03:24:23.875Z,65
2019-03-19T03:25:23.915Z,65
2019-03-19T03:26:23.874Z,65
2019-03-19T03:27:23.894Z,65
2019-03-19T03:28:23.901Z,65
2019-03-19T03:29:23.891Z,65
2019-03-19T03:30:24.141Z,65
2019-03-19T03:31:23.911Z,65
2019-03-19T03:32:24.023Z,65
2019-03-19T03:33:23.910Z,65
2019-03-19T03:34:23.950Z,65
2019-03-19T03:35:23.944Z,65
2019-03-19T03:36:24.019Z,65
2019-03-19T03:37:23.963Z,65
2019-03-19T03:38:23.928Z,65
2019-03-19T03:39:23.967Z,65
2019-03-19T03:40:23.954Z,65
2019-03-19T03:41:23.984Z,65
2019-03-19T03:42:23.962Z,65
2019-03-19T03:43:23.978Z,65
2019-03-19T03:44:24.020Z,65
2019-03-19T03:45:23.979Z,66
2019-03-19T03:46:23.974Z,66
2019-03-19T03:47:23.981Z,66
2019-03-19T03:48:24.013Z,66
2019-03-19T03:49:23.986Z,66
2019-03-19T03:50:23.995Z,67
2019-03-19T03:51:24.090Z,66
2019-03-19T03:52:24.002Z,67
2019-03-19T03:53:24.054Z,66
2019-03-19T03:54:24.062Z,66
2019-03-19T03:55:24.042Z,66
2019-03-19T03:56:24.082Z,65
2019-03-19T03:57:24.100Z,66
2019-03-19T03:58:24.077Z,66
2019-03-19T03:59:24.101Z,66
2019-03-19T04:00:24.196Z,66
2019-03-19T04:01:24.189Z,66
2019-03-19T04:02:24.135Z,66
2019-03-19T04:03:26.375Z,66
2019-03-19T04:04:24.140Z,66
2019-03-19T04:05:24.301Z,66
2019-03-19T04:06:24.175Z,65
2019-03-19T04:07:24.214Z,66
2019-03-19T04:08:24.311Z,66
2019-03-19T04:09:24.168Z,65
2019-03-19T04:10:24.268Z,66
2019-03-19T04:11:24.218Z,66
2019-03-19T04:12:24.209Z,66
2019-03-19T04:13:24.245Z,66
2019-03-19T04:14:24.269Z,66
2019-03-19T04:15:24.236Z,67
2019-03-19T04:16:24.253Z,66
2019-03-19T04:17:24.250Z,66
2019-03-19T04:18:24.255Z,66
2019-03-19T04:19:24.278Z,66
2019-03-19T04:20:24.390Z,65
2019-03-19T04:21:24.348Z,66
2019-03-19T04:22:24.300Z,66
2019-03-19T04:23:24.323Z,66
2019-03-19T04:24:24.333Z,66
2019-03-19T04:25:24.313Z,66
2019-03-19T04:26:24.372Z,66
2019-03-19T04:27:24.336Z,66
2019-03-19T04:28:24.343Z,66
2019-03-19T04:29:24.378Z,66
2019-03-19T04:30:24.367Z,66
2019-03-19T04:31:24.392Z,66
2019-03-19T04:32:24.424Z,66
2019-03-19T04:33:24.410Z,66
2019-03-19T04:34:24.389Z,66
2019-03-19T04:35:24.388Z,66
2019-03-19T04:36:24.454Z,66
2019-03-19T04:37:24.391Z,66
2019-03-19T04:38:24.490Z,66
2019-03-19T04:39:24.415Z,66
2019-03-19T04:40:24.413Z,66
2019-03-19T04:41:24.458Z,66
2019-03-19T04:42:24.462Z,66
2019-03-19T04:43:24.523Z,65
2019-03-19T04:44:26.715Z,65
2019-03-19T04:45:24.483Z,66
2019-03-19T04:46:24.495Z,66
2019-03-19T04:47:24.474Z,66
2019-03-19T04:48:24.504Z,66
2019-03-19T04:49:24.492Z,67
2019-03-19T04:50:24.525Z,66
2019-03-19T04:51:24.497Z,66
2019-03-19T04:52:24.777Z,66
2019-03-19T04:53:24.530Z,66
2019-03-19T04:54:24.560Z,65
2019-03-19T04:55:24.582Z,66
2019-03-19T04:56:24.562Z,66
2019-03-19T04:57:26.910Z,66
2019-03-19T04:58:24.553Z,66
2019-03-19T04:59:24.551Z,66
2019-03-19T05:00:24.580Z,66
2019-03-19T05:01:24.554Z,66
2019-03-19T05:02:24.606Z,66
2019-03-19T05:03:24.554Z,66
2019-03-19T05:04:24.580Z,66
2019-03-19T05:05:24.545Z,66
2019-03-19T05:06:24.579Z,66
2019-03-19T05:07:24.570Z,66
2019-03-19T05:08:24.573Z,66
2019-03-19T05:09:24.613Z,66
2019-03-19T05:10:24.616Z,67
2019-03-19T05:11:24.647Z,67
2019-03-19T05:12:24.598Z,67
2019-03-19T05:13:24.681Z,67
2019-03-19T05:14:24.606Z,67
2019-03-19T05:15:24.650Z,67
2019-03-19T05:16:24.628Z,67
2019-03-19T05:17:24.660Z,67
2019-03-19T05:18:24.703Z,67
2019-03-19T05:19:24.638Z,67
2019-03-19T05:20:24.684Z,67
2019-03-19T05:21:24.640Z,67
2019-03-19T05:22:24.682Z,67
2019-03-19T05:23:24.674Z,67
2019-03-19T05:24:24.704Z,67
2019-03-19T05:25:24.712Z,67
2019-03-19T05:26:24.690Z,67
2019-03-19T05:27:24.800Z,68
2019-03-19T05:28:24.708Z,68
2019-03-19T05:29:24.716Z,68
2019-03-19T05:30:28.234Z,68
2019-03-19T05:31:24.746Z,68
2019-03-19T05:32:24.791Z,68
2019-03-19T05:33:24.834Z,68
2019-03-19T05:34:24.740Z,68
2019-03-19T05:35:24.768Z,68
2019-03-19T05:36:24.758Z,68
2019-03-19T05:37:24.770Z,68
2019-03-19T05:38:24.804Z,68
2019-03-19T05:39:24.786Z,68
2019-03-19T05:40:24.820Z,68
2019-03-19T05:41:24.781Z,69
2019-03-19T05:42:24.801Z,69
2019-03-19T05:43:24.772Z,69
2019-03-19T05:44:24.839Z,69
2019-03-19T05:45:24.862Z,69
2019-03-19T05:46:24.800Z,69
2019-03-19T05:47:24.800Z,69
2019-03-19T05:48:24.837Z,69
2019-03-19T05:49:24.822Z,69
2019-03-19T05:50:24.803Z,69
2019-03-19T05:51:24.983Z,69
2019-03-19T05:52:24.814Z,69
2019-03-19T05:53:24.906Z,69
2019-03-19T05:54:24.858Z,70
2019-03-19T05:55:24.873Z,69
2019-03-19T05:56:24.833Z,69
2019-03-19T05:57:24.836Z,69
2019-03-19T05:58:24.850Z,69
2019-03-19T05:59:24.853Z,70
2019-03-19T06:00:24.861Z,70
2019-03-19T06:01:24.862Z,70
2019-03-19T06:02:24.925Z,70
2019-03-19T06:03:24.909Z,70
2019-03-19T06:04:24.904Z,70
2019-03-19T06:05:24.895Z,70
2019-03-19T06:06:24.888Z,69
2019-03-19T06:07:24.880Z,70
2019-03-19T06:08:24.887Z,70
2019-03-19T06:09:24.883Z,69
2019-03-19T06:10:26.073Z,69
2019-03-19T06:11:24.935Z,69
2019-03-19T06:12:24.919Z,69
2019-03-19T06:13:24.908Z,69
2019-03-19T06:14:24.927Z,69
2019-03-19T06:15:24.921Z,69
2019-03-19T06:16:24.911Z,69
2019-03-19T06:17:24.912Z,69
2019-03-19T06:18:34.486Z,69
2019-03-19T06:19:24.933Z,70
2019-03-19T06:20:24.909Z,69
2019-03-19T06:21:24.923Z,69
2019-03-19T06:22:24.937Z,68
2019-03-19T06:23:24.966Z,68
2019-03-19T06:24:24.987Z,68
2019-03-19T06:25:25.452Z,67
2019-03-19T06:26:24.938Z,67
2019-03-19T06:27:24.969Z,68
2019-03-19T06:28:25.013Z,68
2019-03-19T06:29:24.979Z,67
2019-03-19T06:30:24.963Z,68
2019-03-19T06:31:24.988Z,67
2019-03-19T06:32:25.127Z,67
2019-03-19T06:33:24.975Z,68
2019-03-19T06:34:25.035Z,68
2019-03-19T06:35:25.005Z,67
2019-03-19T06:36:25.043Z,68
2019-03-19T06:37:24.992Z,67
2019-03-19T06:38:25.027Z,67
2019-03-19T06:39:25.021Z,68
2019-03-19T06:40:25.045Z,68
2019-03-19T06:41:25.070Z,67
2019-03-19T06:42:25.141Z,67
2019-03-19T06:43:25.070Z,66
2019-03-19T06:44:25.076Z,66
2019-03-19T06:45:25.069Z,66
2019-03-19T06:46:25.062Z,66
2019-03-19T06:47:25.078Z,67
2019-03-19T06:48:25.104Z,66
2019-03-19T06:49:25.142Z,66
2019-03-19T06:50:25.120Z,66
2019-03-19T06:51:25.147Z,66
2019-03-19T06:52:25.208Z,65
2019-03-19T06:53:25.166Z,66
2019-03-19T06:54:25.151Z,66
2019-03-19T06:55:25.167Z,66
2019-03-19T06:56:25.375Z,67
2019-03-19T06:57:25.193Z,67
2019-03-19T06:58:25.164Z,67
2019-03-19T06:59:25.163Z,66
2019-03-19T07:00:25.200Z,66
2019-03-19T07:01:25.210Z,66
2019-03-19T07:02:25.192Z,66
2019-03-19T07:03:25.193Z,66
2019-03-19T07:04:25.201Z,65
2019-03-19T07:05:25.255Z,64
2019-03-19T07:06:25.759Z,64
2019-03-19T07:07:25.216Z,65
2019-03-19T07:08:25.221Z,66
2019-03-19T07:09:25.267Z,65
2019-03-19T07:10:25.250Z,65
2019-03-19T07:11:25.222Z,65
2019-03-19T07:12:25.275Z,65
2019-03-19T07:13:25.242Z,64
2019-03-19T07:14:25.266Z,64
2019-03-19T07:15:25.237Z,65
2019-03-19T07:16:25.272Z,65
2019-03-19T07:17:25.278Z,64
2019-03-19T07:18:25.323Z,63
2019-03-19T07:19:25.288Z,63
2019-03-19T07:20:25.314Z,62
2019-03-19T07:21:25.281Z,62
2019-03-19T07:22:25.301Z,64
2019-03-19T07:23:25.327Z,64
2019-03-19T07:24:25.294Z,63
2019-03-19T07:25:25.331Z,62
2019-03-19T07:26:25.298Z,63
2019-03-19T07:27:25.330Z,64
2019-03-19T07:28:25.425Z,62
2019-03-19T07:29:25.413Z,62
2019-03-19T07:30:25.366Z,61
2019-03-19T07:31:30.608Z,61
2019-03-19T07:32:25.389Z,61
2019-03-19T07:33:25.345Z,61
2019-03-19T07:34:25.374Z,62
2019-03-19T07:35:25.364Z,61
2019-03-19T07:36:25.365Z,61
2019-03-19T07:37:25.378Z,61
2019-03-19T07:38:25.365Z,62
2019-03-19T07:39:25.411Z,62
2019-03-19T07:40:25.414Z,62
2019-03-19T07:41:25.472Z,63
2019-03-19T07:42:25.437Z,62
2019-03-19T07:43:25.461Z,62
2019-03-19T07:44:25.442Z,62
2019-03-19T07:45:25.447Z,63
2019-03-19T07:46:25.477Z,62
2019-03-19T07:47:25.499Z,61
2019-03-19T07:48:25.480Z,62
2019-03-19T07:49:25.509Z,61
2019-03-19T07:50:25.549Z,62
2019-03-19T07:51:25.505Z,60
2019-03-19T07:52:25.508Z,60
2019-03-19T07:53:25.526Z,60
2019-03-19T07:54:25.551Z,61
2019-03-19T07:55:25.564Z,61
2019-03-19T07:56:25.585Z,60
2019-03-19T07:57:25.724Z,60
2019-03-19T07:58:32.958Z,59
2019-03-19T07:59:25.649Z,59
2019-03-19T08:00:25.651Z,60
2019-03-19T08:01:25.641Z,60
2019-03-19T08:02:25.687Z,61
2019-03-19T08:03:25.714Z,60
2019-03-19T08:04:25.675Z,59
2019-03-19T08:05:32.816Z,59
2019-03-19T08:06:25.726Z,58
2019-03-19T08:07:25.752Z,59
2019-03-19T08:08:25.805Z,58
2019-03-19T08:09:25.862Z,59
2019-03-19T08:10:25.797Z,59
2019-03-19T08:11:25.795Z,59
2019-03-19T08:12:25.812Z,59
2019-03-19T08:13:25.878Z,59
2019-03-19T08:14:25.846Z,60
2019-03-19T08:15:25.844Z,59
2019-03-19T08:16:27.489Z,59
2019-03-19T08:17:25.907Z,59
2019-03-19T08:18:26.042Z,59
2019-03-19T08:19:25.916Z,59
2019-03-19T08:20:25.955Z,60
2019-03-19T08:21:25.980Z,59
2019-03-19T08:22:25.961Z,59
2019-03-19T08:23:25.963Z,60
2019-03-19T08:24:25.993Z,58
2019-03-19T08:25:25.995Z,57
2019-03-19T08:26:26.020Z,58
2019-03-19T08:27:26.011Z,59
2019-03-19T08:28:26.040Z,60
2019-03-19T08:29:26.078Z,61
2019-03-19T08:30:26.072Z,62
2019-03-19T08:31:26.183Z,63
2019-03-19T08:32:26.228Z,64
2019-03-19T08:33:26.108Z,66
2019-03-19T08:34:26.168Z,67
2019-03-19T08:35:26.153Z,69
2019-03-19T08:36:26.205Z,68
2019-03-19T08:37:26.219Z,69
2019-03-19T08:38:26.567Z,69
2019-03-19T08:39:26.214Z,68
2019-03-19T08:40:26.258Z,68
2019-03-19T08:41:26.242Z,70
2019-03-19T08:42:26.289Z,71
2019-03-19T08:43:26.306Z,72
2019-03-19T08:44:27.799Z,72
2019-03-19T08:45:26.343Z,72
2019-03-19T08:46:26.334Z,72
2019-03-19T08:47:26.331Z,73
2019-03-19T08:48:26.372Z,73
2019-03-19T08:49:26.354Z,73
2019-03-19T08:50:26.395Z,74
2019-03-19T08:51:26.395Z,74
2019-03-19T08:52:26.401Z,75
2019-03-19T08:53:26.390Z,75
2019-03-19T08:54:26.433Z,76
2019-03-19T08:55:26.470Z,76
2019-03-19T08:56:26.462Z,76
2019-03-19T08:57:26.514Z,76
2019-03-19T08:58:26.495Z,76
2019-03-19T08:59:26.468Z,76
2019-03-19T09:00:26.510Z,76
2019-03-19T09:01:26.531Z,76
2019-03-19T09:02:26.529Z,77
2019-03-19T09:03:26.523Z,76
2019-03-19T09:04:26.548Z,76
2019-03-19T09:05:26.555Z,75
2019-03-19T09:06:26.580Z,74
2019-03-19T09:07:26.587Z,72
2019-03-19T09:08:27.054Z,71
2019-03-19T09:09:26.639Z,72
2019-03-19T09:10:26.651Z,71
2019-03-19T09:11:26.637Z,70
2019-03-19T09:12:26.655Z,66
2019-03-19T09:13:26.659Z,67
2019-03-19T09:14:26.662Z,69
2019-03-19T09:15:26.717Z,69
2019-03-19T09:16:26.685Z,70
2019-03-19T09:17:26.739Z,70
2019-03-19T09:18:26.702Z,68
2019-03-19T09:19:26.751Z,65
2019-03-19T09:20:26.824Z,65
2019-03-19T09:21:26.744Z,63
2019-03-19T09:22:29.706Z,63
2019-03-19T09:23:26.735Z,62
2019-03-19T09:24:26.803Z,62
2019-03-19T09:25:26.820Z,61
2019-03-19T09:26:26.954Z,60
2019-03-19T09:27:26.801Z,59
2019-03-19T09:28:26.818Z,60
2019-03-19T09:29:26.881Z,61
2019-03-19T09:30:26.833Z,60
2019-03-19T09:31:26.876Z,59
2019-03-19T09:32:26.888Z,60
2019-03-19T09:33:26.860Z,60
2019-03-19T09:34:26.894Z,58
2019-03-19T09:35:26.895Z,56
2019-03-19T09:36:27.011Z,55
2019-03-19T09:37:26.930Z,56
2019-03-19T09:38:26.971Z,56
2019-03-19T09:39:26.936Z,54
2019-03-19T09:40:26.937Z,52
2019-03-19T09:41:26.950Z,50
2019-03-19T09:42:26.951Z,53
2019-03-19T09:43:26.980Z,52
2019-03-19T09:44:28.013Z,51
2019-03-19T09:45:27.043Z,51
2019-03-19T09:46:26.982Z,50
2019-03-19T09:47:27.002Z,50
2019-03-19T09:48:28.269Z,51
2019-03-19T09:49:27.053Z,51
2019-03-19T09:50:27.066Z,52
2019-03-19T09:51:27.051Z,53
2019-03-19T09:52:27.202Z,55
2019-03-19T09:53:27.065Z,54
2019-03-19T09:54:27.085Z,54
2019-03-19T09:55:27.126Z,55
2019-03-19T09:56:27.143Z,56
2019-03-19T09:57:27.106Z,53
2019-03-19T09:58:27.171Z,55
2019-03-19T09:59:27.499Z,54
2019-03-19T10:00:27.205Z,53
2019-03-19T10:01:27.160Z,53
2019-03-19T10:02:27.189Z,52
2019-03-19T10:03:27.181Z,51
2019-03-19T10:04:27.208Z,53
2019-03-19T10:05:27.207Z,53
2019-03-19T10:06:27.231Z,53
2019-03-19T10:07:27.269Z,53
2019-03-19T10:08:27.245Z,53
2019-03-19T10:09:27.226Z,54
2019-03-19T10:10:27.236Z,53
2019-03-19T10:11:27.243Z,54
2019-03-19T10:12:27.278Z,54
2019-03-19T10:13:27.298Z,52
2019-03-19T10:14:59.601Z,52
2019-03-19T10:15:27.333Z,52
2019-03-19T10:16:27.302Z,52
2019-03-19T10:17:27.291Z,51
2019-03-19T10:18:27.297Z,53
2019-03-19T10:19:27.379Z,52
2019-03-19T10:20:27.384Z,52
2019-03-19T10:21:27.359Z,51
2019-03-19T10:22:27.793Z,51
2019-03-19T10:23:27.358Z,51
2019-03-19T10:24:27.373Z,50
2019-03-19T10:25:27.485Z,48
2019-03-19T10:26:27.399Z,48
2019-03-19T10:27:27.401Z,47
2019-03-19T10:28:27.433Z,48
2019-03-19T10:29:37.488Z,47
2019-03-19T10:30:27.449Z,48
2019-03-19T10:31:27.440Z,50
2019-03-19T10:32:27.489Z,48
2019-03-19T10:33:27.438Z,47
2019-03-19T10:34:27.456Z,48
2019-03-19T10:35:27.485Z,47
2019-03-19T10:36:27.486Z,48
2019-03-19T10:37:27.467Z,47
2019-03-19T10:38:27.505Z,48
2019-03-19T10:39:27.478Z,47
2019-03-19T10:40:27.549Z,48
2019-03-19T10:41:27.510Z,49
2019-03-19T10:42:27.537Z,48
2019-03-19T10:43:27.521Z,47
2019-03-19T10:44:27.504Z,48
2019-03-19T10:45:27.540Z,48
2019-03-19T10:46:28.541Z,49
2019-03-19T10:47:27.567Z,49
2019-03-19T10:48:27.531Z,50
2019-03-19T10:49:27.614Z,51
2019-03-19T10:50:27.537Z,48
2019-03-19T10:51:27.572Z,49
2019-03-19T10:52:27.602Z,49
2019-03-19T10:53:27.562Z,48
2019-03-19T10:54:27.563Z,45
2019-03-19T10:55:27.617Z,46
2019-03-19T10:56:27.593Z,45
2019-03-19T10:57:27.603Z,48
2019-03-19T10:58:27.613Z,46
2019-03-19T10:59:27.606Z,47
2019-03-19T11:00:27.617Z,46
2019-03-19T11:01:27.590Z,46
2019-03-19T11:02:27.636Z,47
2019-03-19T11:03:27.688Z,48
2019-03-19T11:04:27.654Z,50
2019-03-19T11:05:27.636Z,50
2019-03-19T11:06:27.740Z,49
2019-03-19T11:07:27.646Z,47
2019-03-19T11:08:27.636Z,47
2019-03-19T11:11:03.574Z,43
2019-03-19T11:11:27.705Z,43
2019-03-19T11:12:27.683Z,44
2019-03-19T11:13:27.662Z,42
2019-03-19T11:14:27.708Z,41
2019-03-19T11:15:27.708Z,42
2019-03-19T11:16:27.704Z,40
2019-03-19T11:17:28.544Z,41
2019-03-19T11:18:27.718Z,40
2019-03-19T11:19:27.739Z,40
2019-03-19T11:20:27.732Z,41
2019-03-19T11:21:27.728Z,40
2019-03-19T11:22:27.706Z,42
2019-03-19T11:23:27.714Z,42
2019-03-19T11:24:27.735Z,40
2019-03-19T11:25:28.758Z,41
2019-03-19T11:26:28.765Z,41
2019-03-19T11:27:29.956Z,41
2019-03-19T11:28:27.761Z,42
2019-03-19T11:29:27.778Z,41
2019-03-19T11:30:27.758Z,41
2019-03-19T11:31:27.750Z,40
2019-03-19T11:32:27.778Z,40
2019-03-19T11:33:27.749Z,40
2019-03-19T11:34:27.785Z,41
2019-03-19T11:35:27.755Z,40
2019-03-19T11:36:27.755Z,39
2019-03-19T11:37:27.815Z,39
2019-03-19T11:38:27.767Z,38
2019-03-19T11:39:27.758Z,37
2019-03-19T11:40:27.746Z,36
2019-03-19T11:41:27.789Z,37
2019-03-19T11:42:27.778Z,36
2019-03-19T11:43:27.810Z,36
2019-03-19T11:44:27.785Z,38
2019-03-19T11:45:27.775Z,38
2019-03-19T11:46:27.844Z,37
2019-03-19T11:47:27.797Z,37
2019-03-19T11:48:27.863Z,38
2019-03-19T11:49:27.805Z,36
2019-03-19T11:50:27.813Z,37
2019-03-19T11:51:27.852Z,39
2019-03-19T11:52:27.834Z,38
2019-03-19T11:53:27.806Z,39
2019-03-19T11:54:27.841Z,40
2019-03-19T11:55:27.898Z,40
2019-03-19T11:56:27.835Z,41
2019-03-19T11:57:27.817Z,40
2019-03-19T11:58:27.889Z,40
2019-03-19T11:59:27.830Z,41
2019-03-19T12:00:27.841Z,41
2019-03-19T12:01:27.843Z,41
2019-03-19T12:02:27.859Z,41
2019-03-19T12:03:27.861Z,42
2019-03-19T12:04:27.860Z,43
2019-03-19T12:05:27.852Z,45
2019-03-19T12:06:27.866Z,47
2019-03-19T12:07:27.900Z,49
2019-03-19T12:08:27.890Z,52
2019-03-19T12:09:27.915Z,53
2019-03-19T12:10:27.899Z,53
2019-03-19T12:11:27.921Z,55
2019-03-19T12:12:27.896Z,57
2019-03-19T12:13:27.878Z,57
2019-03-19T12:14:27.891Z,57
2019-03-19T12:15:27.886Z,59
2019-03-19T12:16:27.909Z,60
2019-03-19T12:17:27.923Z,62
2019-03-19T12:18:27.906Z,65
2019-03-19T12:19:27.898Z,63
2019-03-19T12:20:27.909Z,61
2019-03-19T12:21:27.918Z,61
2019-03-19T12:22:27.898Z,63
2019-03-19T12:23:27.944Z,61
2019-03-19T12:24:27.978Z,62
2019-03-19T12:25:27.961Z,59
2019-03-19T12:26:27.929Z,59
2019-03-19T12:27:27.912Z,59
2019-03-19T12:28:38.983Z,57
2019-03-19T12:29:28.011Z,57
2019-03-19T12:30:27.942Z,58
2019-03-19T12:31:27.931Z,57
2019-03-19T12:32:28.014Z,56
2019-03-19T12:33:27.951Z,58
2019-03-19T12:34:27.957Z,57
2019-03-19T12:35:30.448Z,57
2019-03-19T12:36:27.938Z,55
2019-03-19T12:37:27.953Z,57
2019-03-19T12:38:27.968Z,55
2019-03-19T12:39:27.963Z,54
2019-03-19T12:40:36.593Z,54
2019-03-19T12:41:27.979Z,53
2019-03-19T12:42:27.970Z,53
2019-03-19T12:43:27.985Z,54
2019-03-19T12:44:27.988Z,54
2019-03-19T12:45:28.011Z,54
2019-03-19T12:46:27.993Z,53
2019-03-19T12:47:28.005Z,53
2019-03-19T12:48:28.029Z,52
2019-03-19T12:49:28.021Z,51
2019-03-19T12:50:28.002Z,52
2019-03-19T12:51:27.997Z,51
2019-03-19T12:52:28.000Z,52
2019-03-19T12:53:28.028Z,54
2019-03-19T12:54:28.047Z,53
2019-03-19T12:55:28.046Z,50
2019-03-19T12:56:28.067Z,49
2019-03-19T12:57:28.044Z,51
2019-03-19T12:58:28.067Z,50
2019-03-19T12:59:28.057Z,49
2019-03-19T13:00:33.877Z,49
2019-03-19T13:01:28.608Z,49
2019-03-19T13:02:30.691Z,48
2019-03-19T13:03:28.059Z,48
2019-03-19T13:04:28.107Z,49
2019-03-19T13:05:28.105Z,47
2019-03-19T13:06:28.114Z,46
2019-03-19T13:07:28.131Z,47
2019-03-19T13:08:28.110Z,46
2019-03-19T13:09:28.145Z,46
2019-03-19T13:10:28.133Z,44
2019-03-19T13:11:28.167Z,45
2019-03-19T13:12:28.153Z,45
2019-03-19T13:13:30.418Z,44
2019-03-19T13:14:28.185Z,45
2019-03-19T13:15:28.186Z,46
2019-03-19T13:16:28.210Z,45
2019-03-19T13:17:28.281Z,46
2019-03-19T13:18:28.231Z,46
2019-03-19T13:19:28.221Z,46
2019-03-19T13:20:28.273Z,46
2019-03-19T13:21:28.240Z,45
2019-03-19T13:22:28.273Z,43
2019-03-19T13:23:28.247Z,44
2019-03-19T13:24:28.261Z,43
2019-03-19T13:25:28.271Z,42
2019-03-19T13:26:28.297Z,43
2019-03-19T13:27:28.313Z,44
2019-03-19T13:28:28.324Z,43
2019-03-19T13:29:28.370Z,44
2019-03-19T13:30:28.318Z,44
2019-03-19T13:31:28.329Z,43
2019-03-19T13:32:28.493Z,43
2019-03-19T13:33:28.374Z,43
2019-03-19T13:34:28.391Z,43
2019-03-19T13:35:28.361Z,43
2019-03-19T13:36:28.478Z,43
2019-03-19T13:37:28.377Z,42
2019-03-19T13:38:28.415Z,44
2019-03-19T13:39:28.411Z,43
2019-03-19T13:40:28.410Z,42
2019-03-19T13:41:28.483Z,42
2019-03-19T13:42:28.437Z,42
2019-03-19T13:43:28.466Z,42
2019-03-19T13:44:28.465Z,42
2019-03-19T13:45:28.584Z,42
2019-03-19T13:46:28.462Z,42
2019-03-19T13:47:28.481Z,42
2019-03-19T13:48:28.497Z,42
2019-03-19T13:49:28.506Z,41
2019-03-19T13:50:28.494Z,42
2019-03-19T13:51:28.527Z,41
2019-03-19T13:52:28.523Z,43
2019-03-19T13:53:28.560Z,43
2019-03-19T13:54:28.563Z,44
2019-03-19T13:55:28.554Z,43
2019-03-19T13:56:28.540Z,43
2019-03-19T13:57:28.563Z,43
2019-03-19T13:58:28.535Z,42
2019-03-19T13:59:28.564Z,41
2019-03-19T14:00:28.546Z,42
2019-03-19T14:01:28.588Z,42
2019-03-19T14:02:28.600Z,43
2019-03-19T14:03:28.596Z,43
2019-03-19T14:04:28.594Z,43
2019-03-19T14:05:28.585Z,43
2019-03-19T14:06:28.636Z,42
2019-03-19T14:07:28.634Z,43
2019-03-19T14:08:28.657Z,43
2019-03-19T14:09:28.632Z,43
2019-03-19T14:10:28.641Z,44
2019-03-19T14:11:28.640Z,43
2019-03-19T14:12:28.620Z,44
2019-03-19T14:13:28.664Z,44
2019-03-19T14:14:28.652Z,43
2019-03-19T14:15:28.661Z,44
2019-03-19T14:16:28.670Z,45